Station Historical Data
Daily Summary for February 9, 2017 Units:  English    Metric   Both
« Previous Day
Next Day »
Daily Weekly Monthly Yearly Custom
  High: Low: Average:
Temperature: 54.5 °F 48.7 °F 51.4 °F
Dew Point: 54.0 °F 48.0 °F 50.9 °F
Humidity: 98 % 97 % 98 %
Wind Speed: 27.0 mph 0.0 mph 8.3 mph
Wind Gust: 39.0 mph - -
Wind:- - South
Pressure: 30.11 in 29.90 in -
Precipitation: 0.00 in    
Historical Graphs
 
 
Tabular Data for February 9, 2017
Time Temperature Dew Point Pressure Wind Wind Speed Wind Gust Humidity Rainfall Rate (Hourly) solar
00:03 54.5 °F 54.0 °F 30.11 in SSE 8.0 mph 10.0 mph 98 % 0.00 in 0.00 W/m2
00:08 54.4 °F 53.8 °F 30.11 in Calm   10.0 mph 98 % 0.00 in 0.00 W/m2
00:13 54.4 °F 53.8 °F 30.11 in SSE 4.0 mph 11.0 mph 98 % 0.00 in 0.00 W/m2
00:18 54.4 °F 53.8 °F 30.11 in SSE 5.0 mph 12.0 mph 98 % 0.00 in 0.00 W/m2
00:23 54.4 °F 53.8 °F 30.10 in SSE 2.0 mph 12.0 mph 98 % 0.00 in 0.00 W/m2
00:28 54.4 °F 53.8 °F 30.10 in SSE 9.0 mph 10.0 mph 98 % 0.00 in 0.00 W/m2
00:33 54.3 °F 53.8 °F 30.10 in SSE 5.0 mph 9.0 mph 98 % 0.00 in 0.00 W/m2
00:38 54.3 °F 53.8 °F 30.10 in SE 2.0 mph 12.0 mph 98 % 0.00 in 0.00 W/m2
00:43 54.3 °F 53.8 °F 30.10 in SSE 5.0 mph 10.0 mph 98 % 0.00 in 0.00 W/m2
00:48 54.3 °F 53.8 °F 30.10 in Calm   11.0 mph 98 % 0.00 in 0.00 W/m2
00:53 54.2 °F 53.7 °F 30.10 in SSE 8.0 mph 10.0 mph 98 % 0.00 in 0.00 W/m2
00:58 54.2 °F 53.7 °F 30.10 in SE 10.0 mph 11.0 mph 98 % 0.00 in 0.00 W/m2
01:03 54.2 °F 53.7 °F 30.10 in SSE 5.0 mph 11.0 mph 98 % 0.00 in 0.00 W/m2
01:08 54.1 °F 53.5 °F 30.10 in SSE 4.0 mph 11.0 mph 98 % 0.00 in 0.00 W/m2
01:13 54.1 °F 53.5 °F 30.10 in SE 9.0 mph 12.0 mph 98 % 0.00 in 0.00 W/m2
01:18 54.0 °F 53.5 °F 30.09 in SSE 8.0 mph 12.0 mph 98 % 0.00 in 0.00 W/m2
01:23 54.0 °F 53.5 °F 30.09 in SE 1.0 mph 12.0 mph 98 % 0.00 in 0.00 W/m2
01:28 54.0 °F 53.5 °F 30.09 in SSE 8.0 mph 12.0 mph 98 % 0.00 in 0.00 W/m2
01:33 53.9 °F 53.3 °F 30.08 in SE 8.0 mph 14.0 mph 98 % 0.00 in 0.00 W/m2
01:38 53.8 °F 53.2 °F 30.08 in ESE 5.0 mph 15.0 mph 98 % 0.00 in 0.00 W/m2
01:43 53.7 °F 53.2 °F 30.07 in SE 12.0 mph 15.0 mph 98 % 0.00 in 0.00 W/m2
01:48 53.6 °F 53.0 °F 30.06 in ESE 7.0 mph 14.0 mph 98 % 0.00 in 0.00 W/m2
01:53 53.5 °F 53.0 °F 30.05 in SSE 13.0 mph 21.0 mph 98 % 0.00 in 0.00 W/m2
01:58 53.4 °F 52.8 °F 30.04 in SE 9.0 mph 18.0 mph 98 % 0.00 in 0.00 W/m2
02:03 53.4 °F 52.8 °F 30.04 in East 18.0 mph 18.0 mph 98 % 0.00 in 0.00 W/m2
02:08 53.3 °F 52.8 °F 30.04 in SE 12.0 mph 20.0 mph 98 % 0.00 in 0.00 W/m2
02:13 53.2 °F 52.7 °F 30.03 in SE 4.0 mph 18.0 mph 98 % 0.00 in 0.00 W/m2
02:18 53.1 °F 52.5 °F 30.04 in ESE 11.0 mph 18.0 mph 98 % 0.00 in 0.00 W/m2
02:23 53.0 °F 52.5 °F 30.03 in SE 12.0 mph 16.0 mph 98 % 0.00 in 0.00 W/m2
02:28 52.9 °F 52.3 °F 30.02 in SE 21.0 mph 21.0 mph 98 % 0.00 in 0.00 W/m2
02:33 52.8 °F 52.2 °F 30.01 in ESE 4.0 mph 15.0 mph 98 % 0.00 in 0.00 W/m2
02:38 52.7 °F 52.2 °F 30.00 in SE 7.0 mph 22.0 mph 98 % 0.00 in 0.00 W/m2
02:43 52.6 °F 52.0 °F 30.02 in SE 9.0 mph 18.0 mph 98 % 0.00 in 0.00 W/m2
02:48 52.6 °F 52.0 °F 30.01 in SSE 5.0 mph 14.0 mph 98 % 0.00 in 0.00 W/m2
02:53 52.5 °F 52.0 °F 30.01 in SSE 4.0 mph 14.0 mph 98 % 0.00 in 0.00 W/m2
02:58 52.5 °F 52.0 °F 30.02 in SE 12.0 mph 13.0 mph 98 % 0.00 in 0.00 W/m2
03:03 52.4 °F 51.8 °F 30.01 in SE 8.0 mph 16.0 mph 98 % 0.00 in 0.00 W/m2
03:08 52.4 °F 51.8 °F 30.02 in SE 9.0 mph 17.0 mph 98 % 0.00 in 0.00 W/m2
03:13 52.3 °F 51.8 °F 30.02 in SE 7.0 mph 12.0 mph 98 % 0.00 in 0.00 W/m2
03:18 52.3 °F 51.8 °F 30.02 in SE 4.0 mph 9.0 mph 98 % 0.00 in 0.00 W/m2
03:23 52.3 °F 51.8 °F 30.02 in SE 7.0 mph 15.0 mph 98 % 0.00 in 0.00 W/m2
03:28 52.3 °F 51.8 °F 30.02 in SSE 2.0 mph 10.0 mph 98 % 0.00 in 0.00 W/m2
03:33 52.3 °F 51.8 °F 30.02 in SE 9.0 mph 11.0 mph 98 % 0.00 in 0.00 W/m2
03:38 52.3 °F 51.8 °F 30.02 in SSE 2.0 mph 10.0 mph 98 % 0.00 in 0.00 W/m2
03:43 52.3 °F 51.8 °F 30.02 in Calm   4.0 mph 98 % 0.00 in 0.00 W/m2
03:48 52.3 °F 51.8 °F 30.02 in SSE 6.0 mph 7.0 mph 98 % 0.00 in 0.00 W/m2
03:53 52.3 °F 51.8 °F 30.01 in Calm     98 % 0.00 in 0.00 W/m2
03:58 52.3 °F 51.8 °F 30.01 in Calm     98 % 0.00 in 0.00 W/m2
04:03 52.3 °F 51.8 °F 30.00 in Calm     98 % 0.00 in 0.00 W/m2
04:08 52.3 °F 51.8 °F 30.00 in Calm     98 % 0.00 in 0.00 W/m2
04:13 52.3 °F 51.8 °F 30.01 in Calm     98 % 0.00 in 0.00 W/m2
04:18 52.3 °F 51.8 °F 30.01 in Calm     98 % 0.00 in 0.00 W/m2
04:23 52.3 °F 51.8 °F 30.01 in Calm     98 % 0.00 in 0.00 W/m2
04:28 52.3 °F 51.8 °F 30.00 in Calm     98 % 0.00 in 0.00 W/m2
04:33 52.3 °F 51.8 °F 30.00 in Calm     98 % 0.00 in 0.00 W/m2
04:38 52.3 °F 51.8 °F 30.00 in Calm     98 % 0.00 in 0.00 W/m2
04:43 52.3 °F 51.8 °F 30.00 in Calm     98 % 0.00 in 0.00 W/m2
04:48 52.2 °F 51.7 °F 29.99 in Calm   1.0 mph 98 % 0.00 in 0.00 W/m2
04:53 52.2 °F 51.7 °F 30.00 in Calm     98 % 0.00 in 0.00 W/m2
04:58 52.2 °F 51.7 °F 29.99 in Calm   8.0 mph 98 % 0.00 in 0.00 W/m2
05:03 52.1 °F 51.5 °F 29.99 in SE 6.0 mph 7.0 mph 98 % 0.00 in 0.00 W/m2
05:08 52.1 °F 51.5 °F 29.99 in Calm     98 % 0.00 in 0.00 W/m2
05:13 52.0 °F 51.5 °F 29.99 in Calm     98 % 0.00 in 0.00 W/m2
05:18 51.9 °F 51.4 °F 29.99 in SSE 4.0 mph 8.0 mph 98 % 0.00 in 0.00 W/m2
05:23 51.9 °F 51.4 °F 29.99 in Calm     98 % 0.00 in 0.00 W/m2
05:28 51.8 °F 51.3 °F 29.99 in Calm     98 % 0.00 in 0.00 W/m2
05:33 51.8 °F 51.3 °F 29.99 in Calm     98 % 0.00 in 0.00 W/m2
05:38 51.7 °F 51.2 °F 30.00 in Calm     98 % 0.00 in 0.00 W/m2
05:43 51.7 °F 51.2 °F 30.00 in Calm     98 % 0.00 in 0.00 W/m2
05:48 51.7 °F 51.2 °F 30.00 in Calm     98 % 0.00 in 0.00 W/m2
05:53 51.6 °F 51.1 °F 29.98 in Calm     98 % 0.00 in 0.00 W/m2
05:58 51.6 °F 51.1 °F 29.99 in Calm     98 % 0.00 in 0.00 W/m2
06:03 51.6 °F 51.1 °F 30.00 in Calm   1.0 mph 98 % 0.00 in 0.00 W/m2
06:08 51.7 °F 51.2 °F 29.99 in Calm   1.0 mph 98 % 0.00 in 0.00 W/m2
06:13 51.7 °F 51.2 °F 29.97 in SE 5.0 mph 11.0 mph 98 % 0.00 in 0.00 W/m2
06:18 51.7 °F 51.2 °F 29.95 in SE 6.0 mph 13.0 mph 98 % 0.00 in 0.00 W/m2
06:23 51.7 °F 51.2 °F 29.97 in South 7.0 mph 10.0 mph 98 % 0.00 in 0.00 W/m2
06:28 51.8 °F 51.3 °F 29.98 in Calm   12.0 mph 98 % 0.00 in 0.00 W/m2
06:33 51.8 °F 51.3 °F 29.99 in South 7.0 mph 9.0 mph 98 % 0.00 in 0.00 W/m2
06:38 51.8 °F 51.3 °F 29.98 in SSE 7.0 mph 12.0 mph 98 % 0.00 in 0.00 W/m2
06:43 51.9 °F 51.4 °F 29.97 in SSE 6.0 mph 12.0 mph 98 % 0.00 in 0.00 W/m2
06:48 51.8 °F 51.3 °F 29.97 in SSE 8.0 mph 8.0 mph 98 % 0.00 in 0.00 W/m2
06:53 51.8 °F 51.3 °F 29.97 in SSE 7.0 mph 12.0 mph 98 % 0.00 in 0.00 W/m2
06:58 51.8 °F 51.3 °F 29.97 in SSE 7.0 mph 12.0 mph 98 % 0.00 in 0.00 W/m2
07:03 51.9 °F 51.4 °F 29.97 in SSE 13.0 mph 14.0 mph 98 % 0.00 in 0.00 W/m2
07:08 51.9 °F 51.4 °F 29.96 in SE 6.0 mph 12.0 mph 98 % 0.00 in 0.00 W/m2
07:13 51.9 °F 51.4 °F 29.96 in SSE 7.0 mph 13.0 mph 98 % 0.00 in 0.00 W/m2
07:18 52.0 °F 51.5 °F 29.96 in SSE 8.0 mph 15.0 mph 98 % 0.00 in 0.00 W/m2
07:23 51.9 °F 51.4 °F 29.97 in South 7.0 mph 16.0 mph 98 % 0.00 in 0.00 W/m2
07:28 52.0 °F 51.5 °F 29.96 in South 7.0 mph 14.0 mph 98 % 0.00 in 5.00 W/m2
07:29 52.0 °F 51.5 °F 29.96 in South 2.0 mph 14.0 mph 98 % 0.00 in 5.00 W/m2
07:34 52.1 °F 51.5 °F 29.96 in SSE 7.0 mph 12.0 mph 98 % 0.00 in 5.00 W/m2
07:39 52.1 °F 51.5 °F 29.97 in SE 7.0 mph 12.0 mph 98 % 0.00 in 7.00 W/m2
07:44 52.1 °F 51.5 °F 29.97 in SSE 4.0 mph 12.0 mph 98 % 0.00 in 7.00 W/m2
07:49 52.1 °F 51.5 °F 29.97 in South 12.0 mph 12.0 mph 98 % 0.00 in 11.00 W/m2
07:54 52.1 °F 51.5 °F 29.98 in SSE 9.0 mph 11.0 mph 98 % 0.00 in 7.00 W/m2
07:59 52.1 °F 51.5 °F 29.98 in SSW 4.0 mph 11.0 mph 98 % 0.00 in 9.00 W/m2
08:04 52.2 °F 51.7 °F 29.98 in SSW 9.0 mph 16.0 mph 98 % 0.00 in 11.00 W/m2
08:09 52.2 °F 51.7 °F 29.97 in SE 9.0 mph 19.0 mph 98 % 0.00 in 7.00 W/m2
08:14 52.3 °F 51.8 °F 29.97 in SSW 6.0 mph 16.0 mph 98 % 0.00 in 9.00 W/m2
08:19 52.3 °F 51.8 °F 29.97 in SSE 7.0 mph 18.0 mph 98 % 0.00 in 11.00 W/m2
08:24 52.3 °F 51.8 °F 29.97 in South 13.0 mph 19.0 mph 98 % 0.00 in 9.00 W/m2
08:29 52.4 °F 51.8 °F 29.97 in South 16.0 mph 21.0 mph 98 % 0.00 in 11.00 W/m2
08:34 52.4 °F 51.8 °F 29.97 in SSE 9.0 mph 16.0 mph 98 % 0.00 in 12.00 W/m2
08:39 52.4 °F 51.8 °F 29.97 in SSE 7.0 mph 19.0 mph 98 % 0.00 in 9.00 W/m2
08:44 52.4 °F 51.8 °F 29.97 in SSE 15.0 mph 18.0 mph 98 % 0.00 in 9.00 W/m2
08:49 52.5 °F 52.0 °F 29.96 in SE 12.0 mph 19.0 mph 98 % 0.00 in 11.00 W/m2
08:54 52.5 °F 52.0 °F 29.97 in SSW 14.0 mph 20.0 mph 98 % 0.00 in 9.00 W/m2
08:59 52.6 °F 52.0 °F 29.95 in SE 6.0 mph 21.0 mph 98 % 0.08 in 14.00 W/m2
09:04 52.6 °F 52.0 °F 29.96 in South 15.0 mph 18.0 mph 98 % 0.06 in 14.00 W/m2
09:09 52.7 °F 52.2 °F 29.96 in SE 13.0 mph 23.0 mph 98 % 0.06 in 9.00 W/m2
09:14 52.7 °F 52.2 °F 29.96 in South 15.0 mph 24.0 mph 98 % 0.06 in 18.00 W/m2
09:19 52.8 °F 52.2 °F 29.96 in South 7.0 mph 21.0 mph 98 % 0.06 in 12.00 W/m2
09:24 52.8 °F 52.2 °F 29.96 in SSE 11.0 mph 18.0 mph 98 % 0.06 in 18.00 W/m2
09:29 52.8 °F 52.2 °F 29.96 in South 14.0 mph 24.0 mph 98 % 0.06 in 18.00 W/m2
09:34 52.8 °F 52.2 °F 29.96 in South 6.0 mph 24.0 mph 98 % 0.08 in 19.00 W/m2
09:39 52.8 °F 52.2 °F 29.96 in South 6.0 mph 17.0 mph 98 % 0.08 in 21.00 W/m2
09:44 52.8 °F 52.2 °F 29.95 in SSE 9.0 mph 18.0 mph 98 % 0.05 in 16.00 W/m2
09:49 52.8 °F 52.2 °F 29.96 in SE 6.0 mph 20.0 mph 98 % 0.05 in 21.00 W/m2
09:54 52.8 °F 52.2 °F 29.96 in South 3.0 mph 25.0 mph 98 % 0.05 in 23.00 W/m2
09:59 52.8 °F 52.2 °F 29.96 in SSE 18.0 mph 28.0 mph 98 % 0.04 in 23.00 W/m2
10:04 52.7 °F 52.2 °F 29.96 in SE 22.0 mph 25.0 mph 98 % 0.13 in 21.00 W/m2
10:09 52.6 °F 52.0 °F 29.95 in SSE 17.0 mph 30.0 mph 98 % 0.12 in 21.00 W/m2
10:14 52.6 °F 52.0 °F 29.95 in SSE 9.0 mph 24.0 mph 98 % 0.15 in 19.00 W/m2
10:19 52.5 °F 52.0 °F 29.95 in SSE 11.0 mph 25.0 mph 98 % 0.10 in 28.00 W/m2
10:24 52.5 °F 52.0 °F 29.95 in SSE 27.0 mph 34.0 mph 98 % 0.14 in 25.00 W/m2
10:29 52.4 °F 51.8 °F 29.94 in SE 20.0 mph 33.0 mph 98 % 0.10 in 26.00 W/m2
10:34 52.0 °F 51.5 °F 29.94 in SE 26.0 mph 33.0 mph 98 % 0.08 in 26.00 W/m2
10:39 51.8 °F 51.3 °F 29.94 in South 26.0 mph 39.0 mph 98 % 0.09 in 28.00 W/m2
10:44 51.9 °F 51.4 °F 29.94 in South 24.0 mph 35.0 mph 98 % 0.10 in 19.00 W/m2
10:49 51.8 °F 51.3 °F 29.94 in SW 13.0 mph 19.0 mph 98 % 0.10 in 18.00 W/m2
10:54 51.7 °F 51.2 °F 29.95 in South 10.0 mph 26.0 mph 98 % 0.06 in 12.00 W/m2
10:59 51.8 °F 51.3 °F 29.96 in SSW 9.0 mph 22.0 mph 98 % 0.13 in 9.00 W/m2
11:04 52.0 °F 51.5 °F 29.95 in SSE 4.0 mph 23.0 mph 98 % 0.12 in 19.00 W/m2
11:09 52.2 °F 51.7 °F 29.94 in South 10.0 mph 19.0 mph 98 % 0.10 in 19.00 W/m2
11:14 52.4 °F 51.8 °F 29.93 in SSE 9.0 mph 17.0 mph 98 % 0.09 in 12.00 W/m2
11:19 52.6 °F 52.0 °F 29.93 in SSE 10.0 mph 20.0 mph 98 % 0.14 in 19.00 W/m2
11:24 52.7 °F 52.2 °F 29.95 in South 17.0 mph 22.0 mph 98 % 0.10 in 23.00 W/m2
11:29 52.7 °F 52.2 °F 29.95 in SSE 5.0 mph 20.0 mph 98 % 0.08 in 16.00 W/m2
11:34 52.8 °F 52.2 °F 29.94 in South 13.0 mph 24.0 mph 98 % 0.13 in 11.00 W/m2
11:39 52.8 °F 52.2 °F 29.94 in South 11.0 mph 31.0 mph 98 % 0.10 in 19.00 W/m2
11:44 52.8 °F 52.2 °F 29.95 in WSW 10.0 mph 22.0 mph 98 % 0.86 in 7.00 W/m2
11:49 52.8 °F 52.2 °F 29.95 in South 20.0 mph 33.0 mph 98 % 0.22 in 16.00 W/m2
11:54 52.7 °F 52.2 °F 29.95 in South 10.0 mph 24.0 mph 98 % 0.18 in 11.00 W/m2
11:59 52.6 °F 52.0 °F 29.96 in South 10.0 mph 31.0 mph 98 % 0.22 in 9.00 W/m2
12:04 52.4 °F 51.8 °F 29.97 in Calm   20.0 mph 98 % 0.42 in 11.00 W/m2
12:09 52.2 °F 51.7 °F 29.96 in SSE 19.0 mph 30.0 mph 98 % 0.18 in 18.00 W/m2
12:14 52.0 °F 51.5 °F 29.97 in South 9.0 mph 24.0 mph 98 % 0.20 in 19.00 W/m2
12:19 51.9 °F 51.4 °F 29.96 in SSW 13.0 mph 31.0 mph 98 % 0.24 in 21.00 W/m2
12:24 51.7 °F 51.2 °F 29.96 in SSW 5.0 mph 27.0 mph 98 % 0.21 in 30.00 W/m2
12:29 51.6 °F 51.1 °F 29.96 in SSW 7.0 mph 25.0 mph 98 % 0.17 in 21.00 W/m2
12:34 51.4 °F 50.9 °F 29.95 in South 11.0 mph 26.0 mph 98 % 0.13 in 23.00 W/m2
12:40 51.3 °F 50.8 °F 29.96 in South 9.0 mph 22.0 mph 98 % 0.17 in 12.00 W/m2
12:45 51.2 °F 50.7 °F 29.95 in South 12.0 mph 22.0 mph 98 % 0.25 in 28.00 W/m2
12:50 51.0 °F 50.5 °F 29.94 in South 15.0 mph 28.0 mph 98 % 0.23 in 21.00 W/m2
12:55 51.0 °F 50.5 °F 29.94 in SW 8.0 mph 26.0 mph 98 % 0.10 in 21.00 W/m2
13:00 50.9 °F 50.4 °F 29.94 in SE 7.0 mph 26.0 mph 98 % 0.15 in 19.00 W/m2
13:05 50.8 °F 50.3 °F 29.95 in South 21.0 mph 24.0 mph 98 % 0.09 in 28.00 W/m2
13:10 50.7 °F 50.2 °F 29.95 in South 12.0 mph 31.0 mph 98 % 0.09 in 28.00 W/m2
13:15 50.4 °F 49.9 °F 29.95 in South 17.0 mph 24.0 mph 98 % 0.15 in 26.00 W/m2
13:20 50.1 °F 49.6 °F 29.94 in SE 23.0 mph 27.0 mph 98 % 0.14 in 35.00 W/m2
13:25 49.9 °F 49.4 °F 29.95 in South 14.0 mph 29.0 mph 98 % 0.13 in 30.00 W/m2
13:30 49.7 °F 49.2 °F 29.95 in SSW 18.0 mph 28.0 mph 98 % 0.16 in 26.00 W/m2
13:35 49.5 °F 49.0 °F 29.94 in South 14.0 mph 23.0 mph 98 % 0.14 in 25.00 W/m2
13:40 49.4 °F 48.9 °F 29.94 in SSE 26.0 mph 34.0 mph 98 % 0.18 in 33.00 W/m2
13:45 49.3 °F 48.8 °F 29.95 in South 13.0 mph 34.0 mph 98 % 0.19 in 23.00 W/m2
13:50 49.4 °F 48.9 °F 29.94 in South 16.0 mph 22.0 mph 98 % 0.20 in 18.00 W/m2
13:55 49.4 °F 48.9 °F 29.94 in SSE 7.0 mph 26.0 mph 98 % 0.14 in 21.00 W/m2
14:00 49.5 °F 49.0 °F 29.95 in South 16.0 mph 28.0 mph 98 % 0.14 in 19.00 W/m2
14:05 49.6 °F 49.1 °F 29.95 in South 8.0 mph 27.0 mph 98 % 0.14 in 16.00 W/m2
14:10 49.6 °F 49.1 °F 29.94 in South 2.0 mph 24.0 mph 98 % 0.20 in 18.00 W/m2
14:15 49.7 °F 49.2 °F 29.95 in South 11.0 mph 27.0 mph 98 % 0.20 in 16.00 W/m2
14:20 49.7 °F 49.2 °F 29.94 in South 8.0 mph 22.0 mph 98 % 0.20 in 25.00 W/m2
14:25 49.7 °F 49.2 °F 29.93 in SSE 17.0 mph 24.0 mph 98 % 0.23 in 33.00 W/m2
14:30 49.8 °F 49.3 °F 29.94 in South 16.0 mph 25.0 mph 98 % 0.18 in 18.00 W/m2
14:35 49.8 °F 49.3 °F 29.94 in SW 9.0 mph 26.0 mph 98 % 0.12 in 16.00 W/m2
14:40 49.9 °F 49.4 °F 29.94 in SSE 7.0 mph 17.0 mph 98 % 0.40 in 14.00 W/m2
14:45 49.9 °F 49.4 °F 29.94 in SE 15.0 mph 20.0 mph 98 % 0.34 in 12.00 W/m2
14:50 50.0 °F 49.5 °F 29.94 in South 11.0 mph 21.0 mph 98 % 0.42 in 9.00 W/m2
14:55 50.0 °F 49.5 °F 29.95 in SSE 12.0 mph 14.0 mph 98 % 0.25 in 14.00 W/m2
15:00 50.0 °F 49.5 °F 29.94 in SSE 17.0 mph 22.0 mph 98 % 0.18 in 12.00 W/m2
15:05 50.0 °F 49.5 °F 29.93 in SSE 14.0 mph 26.0 mph 98 % 0.17 in 11.00 W/m2
15:10 50.0 °F 49.5 °F 29.93 in SSE 11.0 mph 20.0 mph 98 % 0.15 in 12.00 W/m2
15:15 50.0 °F 49.5 °F 29.92 in SE 15.0 mph 22.0 mph 98 % 0.17 in 12.00 W/m2
15:20 50.0 °F 49.5 °F 29.91 in SSE 9.0 mph 25.0 mph 98 % 0.14 in 9.00 W/m2
15:26 50.0 °F 49.5 °F 29.90 in SE 18.0 mph 29.0 mph 98 % 0.09 in 11.00 W/m2
15:31 50.0 °F 49.5 °F 29.90 in SSE 26.0 mph 28.0 mph 98 % 0.10 in 7.00 W/m2
15:36 50.0 °F 49.5 °F 29.90 in SE 10.0 mph 25.0 mph 98 % 0.10 in 9.00 W/m2
15:41 50.0 °F 49.5 °F 29.90 in SE 15.0 mph 28.0 mph 98 % 0.08 in 11.00 W/m2
15:46 50.0 °F 49.5 °F 29.90 in South 19.0 mph 28.0 mph 98 % 0.08 in 9.00 W/m2
15:51 50.0 °F 49.5 °F 29.90 in ESE 15.0 mph 25.0 mph 98 % 0.13 in 7.00 W/m2
15:56 50.0 °F 49.5 °F 29.91 in SSE 14.0 mph 23.0 mph 98 % 0.19 in 9.00 W/m2
16:01 50.0 °F 49.5 °F 29.92 in WSW 16.0 mph 19.0 mph 98 % 0.14 in 5.00 W/m2
16:06 50.0 °F 49.5 °F 29.91 in South 22.0 mph 24.0 mph 98 % 0.17 in 7.00 W/m2
16:11 49.9 °F 49.4 °F 29.91 in SSE 12.0 mph 17.0 mph 98 % 0.14 in 7.00 W/m2
16:16 49.9 °F 49.4 °F 29.92 in South 6.0 mph 9.0 mph 98 % 0.06 in 5.00 W/m2
16:21 50.0 °F 49.5 °F 29.92 in SSE 10.0 mph 10.0 mph 98 % 0.04 in 9.00 W/m2
16:26 50.0 °F 49.5 °F 29.91 in SE 6.0 mph 15.0 mph 98 % 0.04 in 7.00 W/m2
16:31 50.0 °F 49.5 °F 29.92 in South 7.0 mph 8.0 mph 98 % 0.07 in 5.00 W/m2
16:36 50.0 °F 49.5 °F 29.93 in SW 6.0 mph 9.0 mph 98 % 0.18 in 5.00 W/m2
16:41 50.0 °F 49.5 °F 29.92 in SSE 19.0 mph 22.0 mph 98 % 0.15 in 7.00 W/m2
16:46 50.0 °F 49.5 °F 29.92 in South 8.0 mph 12.0 mph 98 % 0.08 in 11.00 W/m2
16:51 50.0 °F 49.5 °F 29.93 in South 11.0 mph 16.0 mph 98 % 0.04 in 7.00 W/m2
16:56 50.0 °F 49.5 °F 29.92 in SSE 10.0 mph 16.0 mph 98 % 0.04 in 0.00 W/m2
17:01 50.1 °F 49.6 °F 29.92 in South 15.0 mph 15.0 mph 98 % 0.04 in 0.00 W/m2
17:06 50.1 °F 49.6 °F 29.93 in SSE 13.0 mph 16.0 mph 98 % 0.04 in 0.00 W/m2
17:11 50.3 °F 49.8 °F 29.93 in South 11.0 mph 13.0 mph 98 % 0.00 in 0.00 W/m2
17:16 50.3 °F 49.8 °F 29.93 in South 9.0 mph 15.0 mph 98 % 0.00 in 0.00 W/m2
17:21 50.4 °F 49.9 °F 29.92 in SSE 9.0 mph 13.0 mph 98 % 0.00 in 0.00 W/m2
17:26 50.3 °F 49.8 °F 29.93 in South 17.0 mph 17.0 mph 98 % 0.00 in 0.00 W/m2
17:31 50.4 °F 49.9 °F 29.93 in SSW 19.0 mph 19.0 mph 98 % 0.00 in 0.00 W/m2
17:36 50.4 °F 49.9 °F 29.93 in SSE 15.0 mph 20.0 mph 98 % 0.00 in 0.00 W/m2
17:41 50.4 °F 49.9 °F 29.94 in SSE 9.0 mph 13.0 mph 98 % 0.00 in 0.00 W/m2
17:46 50.4 °F 49.9 °F 29.94 in South 12.0 mph 12.0 mph 98 % 0.00 in 0.00 W/m2
17:51 50.4 °F 49.9 °F 29.94 in South 9.0 mph 12.0 mph 98 % 0.00 in 0.00 W/m2
17:56 50.4 °F 49.9 °F 29.94 in SSE 11.0 mph 16.0 mph 98 % 0.00 in 0.00 W/m2
18:01 50.4 °F 49.9 °F 29.95 in South 15.0 mph 16.0 mph 98 % 0.00 in 0.00 W/m2
18:06 50.4 °F 49.9 °F 29.95 in South 13.0 mph 15.0 mph 98 % 0.00 in 0.00 W/m2
18:11 50.4 °F 49.9 °F 29.95 in SSE 14.0 mph 25.0 mph 98 % 0.00 in 0.00 W/m2
18:16 50.4 °F 49.9 °F 29.95 in SSE 10.0 mph 17.0 mph 98 % 0.00 in 0.00 W/m2
18:21 50.4 °F 49.9 °F 29.95 in South 15.0 mph 18.0 mph 98 % 0.00 in 0.00 W/m2
18:27 50.4 °F 49.9 °F 29.95 in SSE 10.0 mph 18.0 mph 98 % 0.00 in 0.00 W/m2
18:32 50.4 °F 49.9 °F 29.95 in South 10.0 mph 17.0 mph 98 % 0.00 in 0.00 W/m2
18:36 50.4 °F 49.9 °F 29.95 in SSW 3.0 mph 19.0 mph 98 % 0.00 in 0.00 W/m2
18:39 50.4 °F 49.9 °F 29.95 in SSE 7.0 mph 14.0 mph 98 % 0.00 in 0.00 W/m2
18:41 50.4 °F 49.9 °F 29.96 in South 9.0 mph 14.0 mph 98 % 0.00 in 0.00 W/m2
18:46 50.4 °F 49.9 °F 29.96 in Calm   16.0 mph 98 % 0.00 in 0.00 W/m2
18:51 50.4 °F 49.9 °F 29.97 in SSW 8.0 mph 14.0 mph 98 % 0.00 in 0.00 W/m2
18:56 50.4 °F 49.9 °F 29.96 in SE 6.0 mph 15.0 mph 98 % 0.00 in 0.00 W/m2
19:01 50.4 °F 49.9 °F 29.96 in SSE 5.0 mph 24.0 mph 98 % 0.00 in 0.00 W/m2
19:06 50.4 °F 49.9 °F 29.96 in South 7.0 mph 17.0 mph 98 % 0.00 in 0.00 W/m2
19:11 50.4 °F 49.9 °F 29.96 in South 4.0 mph 15.0 mph 98 % 0.00 in 0.00 W/m2
19:16 50.4 °F 49.9 °F 29.96 in SSW 4.0 mph 13.0 mph 98 % 0.04 in 0.00 W/m2
19:21 50.4 °F 49.9 °F 29.95 in South 8.0 mph 16.0 mph 98 % 0.10 in 0.00 W/m2
19:26 50.4 °F 49.9 °F 29.95 in South 6.0 mph 12.0 mph 98 % 0.08 in 0.00 W/m2
19:31 50.3 °F 49.8 °F 29.95 in SSW 10.0 mph 15.0 mph 98 % 0.51 in 0.00 W/m2
19:36 50.3 °F 49.8 °F 29.95 in SSW 9.0 mph 13.0 mph 98 % 0.16 in 0.00 W/m2
19:41 50.2 °F 49.7 °F 29.95 in SE 12.0 mph 15.0 mph 98 % 0.07 in 0.00 W/m2
19:46 50.2 °F 49.7 °F 29.95 in SSE 14.0 mph 22.0 mph 98 % 0.06 in 0.00 W/m2
19:51 50.2 °F 49.7 °F 29.95 in South 8.0 mph 20.0 mph 98 % 0.06 in 0.00 W/m2
19:56 50.2 °F 49.7 °F 29.95 in Calm   22.0 mph 98 % 0.05 in 0.00 W/m2
20:01 50.3 °F 49.8 °F 29.95 in SSW 4.0 mph 15.0 mph 98 % 0.15 in 0.00 W/m2
20:06 50.3 °F 49.8 °F 29.95 in Calm   18.0 mph 98 % 0.19 in 0.00 W/m2
20:11 50.3 °F 49.8 °F 29.96 in WSW 7.0 mph 19.0 mph 98 % 0.08 in 0.00 W/m2
20:16 50.4 °F 49.9 °F 29.95 in SSW 12.0 mph 15.0 mph 98 % 0.08 in 0.00 W/m2
20:21 50.4 °F 49.9 °F 29.95 in SSW 10.0 mph 15.0 mph 98 % 0.05 in 0.00 W/m2
20:26 50.4 °F 49.9 °F 29.95 in SSW 12.0 mph 14.0 mph 98 % 0.04 in 0.00 W/m2
20:31 50.5 °F 50.0 °F 29.95 in South 6.0 mph 12.0 mph 98 % 0.00 in 0.00 W/m2
20:36 50.5 °F 50.0 °F 29.95 in South 2.0 mph 14.0 mph 98 % 0.00 in 0.00 W/m2
20:41 50.6 °F 50.1 °F 29.94 in SSE 1.0 mph 13.0 mph 98 % 0.00 in 0.00 W/m2
20:46 50.6 °F 50.1 °F 29.94 in South 7.0 mph 12.0 mph 98 % 0.00 in 0.00 W/m2
20:56 50.7 °F 50.2 °F 29.94 in South 6.0 mph 15.0 mph 98 % 0.00 in 0.00 W/m2
21:01 50.6 °F 50.1 °F 29.94 in South 9.0 mph 13.0 mph 98 % 0.00 in 0.00 W/m2
21:06 50.7 °F 50.2 °F 29.95 in South 5.0 mph 17.0 mph 98 % 0.00 in 0.00 W/m2
21:11 50.7 °F 50.2 °F 29.95 in Calm   13.0 mph 98 % 0.00 in 0.00 W/m2
21:16 50.7 °F 50.2 °F 29.95 in SE 1.0 mph 12.0 mph 98 % 0.00 in 0.00 W/m2
21:21 50.7 °F 50.2 °F 29.94 in SE 8.0 mph 14.0 mph 98 % 0.00 in 0.00 W/m2
21:26 50.6 °F 50.1 °F 29.95 in SSE 7.0 mph 18.0 mph 98 % 0.00 in 0.00 W/m2
21:31 50.5 °F 50.0 °F 29.96 in SSE 16.0 mph 21.0 mph 98 % 0.00 in 0.00 W/m2
21:36 50.5 °F 50.0 °F 29.95 in Calm   16.0 mph 98 % 0.25 in 0.00 W/m2
21:41 50.4 °F 49.9 °F 29.96 in South 3.0 mph 16.0 mph 98 % 0.09 in 0.00 W/m2
21:46 50.4 °F 49.9 °F 29.96 in SW 11.0 mph 20.0 mph 98 % 0.58 in 0.00 W/m2
21:51 50.4 °F 49.9 °F 29.96 in SSW 4.0 mph 11.0 mph 98 % 0.80 in 0.00 W/m2
21:56 50.3 °F 49.8 °F 29.96 in SW 15.0 mph 16.0 mph 98 % 0.71 in 0.00 W/m2
22:01 50.2 °F 49.7 °F 29.97 in SSE 5.0 mph 15.0 mph 98 % 0.09 in 0.00 W/m2
22:06 50.2 °F 49.7 °F 29.97 in SW 3.0 mph 15.0 mph 98 % 0.06 in 0.00 W/m2
22:11 50.1 °F 49.6 °F 29.97 in Calm   8.0 mph 98 % 0.06 in 0.00 W/m2
22:16 50.1 °F 49.6 °F 29.97 in SSW 1.0 mph 10.0 mph 98 % 0.05 in 0.00 W/m2
22:21 50.0 °F 49.5 °F 29.97 in WSW 6.0 mph 15.0 mph 98 % 0.04 in 0.00 W/m2
22:26 49.9 °F 49.4 °F 29.98 in WSW 3.0 mph 14.0 mph 98 % 0.12 in 0.00 W/m2
22:31 49.8 °F 49.3 °F 29.98 in Calm   12.0 mph 98 % 0.34 in 0.00 W/m2
22:36 49.8 °F 49.3 °F 29.97 in South 3.0 mph 12.0 mph 98 % 0.21 in 0.00 W/m2
22:41 49.7 °F 49.2 °F 29.98 in SW 4.0 mph 8.0 mph 98 % 0.10 in 0.00 W/m2
22:46 49.6 °F 49.1 °F 29.98 in Calm   15.0 mph 98 % 0.19 in 0.00 W/m2
22:51 49.6 °F 49.1 °F 29.98 in Calm   12.0 mph 98 % 0.34 in 0.00 W/m2
22:56 49.5 °F 49.0 °F 29.97 in Calm   9.0 mph 98 % 0.16 in 0.00 W/m2
23:01 49.4 °F 48.9 °F 29.97 in SW 5.0 mph 11.0 mph 98 % 0.10 in 0.00 W/m2
23:06 49.3 °F 48.8 °F 29.98 in WSW 7.0 mph 12.0 mph 98 % 0.19 in 0.00 W/m2
23:11 49.3 °F 48.8 °F 29.98 in Calm   11.0 mph 98 % 0.21 in 0.00 W/m2
23:16 49.2 °F 48.7 °F 29.97 in Calm   8.0 mph 98 % 0.24 in 0.00 W/m2
23:21 49.2 °F 48.7 °F 29.97 in SW 13.0 mph 13.0 mph 98 % 0.18 in 0.00 W/m2
23:26 49.1 °F 48.6 °F 29.97 in SW 6.0 mph 14.0 mph 98 % 0.15 in 0.00 W/m2
23:31 49.1 °F 48.3 °F 29.97 in SSW 5.0 mph 9.0 mph 97 % 0.19 in 0.00 W/m2
23:36 49.0 °F 48.2 °F 29.97 in SW 3.0 mph 9.0 mph 97 % 0.12 in 0.00 W/m2
23:41 49.0 °F 48.2 °F 29.97 in Calm   9.0 mph 97 % 0.05 in 0.00 W/m2
23:46 48.9 °F 48.4 °F 29.98 in WSW 7.0 mph 7.0 mph 98 % 0.05 in 0.00 W/m2
23:51 48.8 °F 48.0 °F 29.98 in Calm   11.0 mph 97 % 0.05 in 0.00 W/m2
23:56 48.7 °F 48.2 °F 29.98 in SW 3.0 mph 3.0 mph 98 % 0.06 in 0.00 W/m2
Juneau County Weather
Compliments of Weather Underground - 4.5 mb
 WU-history PHP script courtesy of   Juneau County Weather.
powered by Cumulus v1.9.3 (1059)
Ambient Weather VWS v14.00
Top Contact Website Map Copyright © 2007 - 2018 Foresthillweather.com Never base important decisions on this or any weather information obtained from the Internet